createdAt,value
2023-10-29T00:01:00.210Z,51.04
2023-10-29T00:03:27.962Z,50.96
2023-10-29T00:05:55.675Z,51.04
2023-10-29T00:08:23.328Z,50.91
2023-10-29T00:10:50.947Z,50.97
2023-10-29T00:13:18.540Z,51.19
2023-10-29T00:15:46.131Z,51.30
2023-10-29T00:18:14.165Z,51.40
2023-10-29T00:20:41.877Z,51.43
2023-10-29T00:23:09.533Z,51.42
2023-10-29T00:25:37.113Z,51.52
2023-10-29T00:28:04.905Z,51.51
2023-10-29T00:30:32.542Z,51.43
2023-10-29T00:33:00.330Z,51.52
2023-10-29T00:35:28.103Z,51.40
2023-10-29T00:37:55.788Z,51.26
2023-10-29T00:40:23.351Z,51.32
2023-10-29T00:42:50.935Z,51.30
2023-10-29T00:45:18.533Z,51.34
2023-10-29T00:47:46.471Z,51.35
2023-10-29T00:50:14.262Z,51.37
2023-10-29T00:52:42.118Z,51.14
2023-10-29T00:55:10.344Z,51.15
2023-10-29T00:57:38.412Z,51.38
2023-10-29T01:00:07.636Z,51.22
2023-10-29T01:02:35.563Z,51.01
2023-10-29T01:05:06.030Z,51.07
2023-10-29T01:07:34.422Z,51.10
2023-10-29T01:10:02.096Z,50.99
2023-10-29T01:12:30.631Z,50.74
2023-10-29T01:15:05.808Z,50.82
2023-10-29T01:17:33.695Z,50.89
2023-10-29T01:20:05.127Z,50.60
2023-10-29T01:22:34.873Z,50.42
2023-10-29T01:25:06.767Z,50.48
2023-10-29T01:27:35.341Z,50.47
2023-10-29T01:30:04.021Z,50.59
2023-10-29T01:32:31.719Z,50.38
2023-10-29T01:34:59.492Z,50.44
2023-10-29T01:37:27.102Z,50.26
2023-10-29T01:39:54.895Z,50.24
2023-10-29T01:42:22.525Z,50.46
2023-10-29T01:44:50.350Z,50.24
2023-10-29T01:47:18.156Z,50.52
2023-10-29T01:49:45.704Z,50.56
2023-10-29T01:52:13.307Z,50.60
2023-10-29T01:54:40.991Z,50.69
2023-10-29T01:57:08.571Z,50.49
2023-10-29T01:59:36.439Z,50.46
2023-10-29T02:02:04.322Z,50.52
2023-10-29T02:04:33.429Z,50.63
2023-10-29T02:07:01.005Z,50.66
2023-10-29T02:09:29.174Z,50.59
2023-10-29T02:11:56.803Z,50.69
2023-10-29T02:14:24.537Z,50.74
2023-10-29T02:16:52.684Z,50.72
2023-10-29T02:19:20.236Z,50.85
2023-10-29T02:21:47.825Z,50.87
2023-10-29T02:24:15.401Z,50.75
2023-10-29T02:26:43.002Z,50.64
2023-10-29T02:29:10.680Z,50.76
2023-10-29T02:31:38.388Z,50.61
2023-10-29T02:34:06.002Z,50.47
2023-10-29T02:36:33.764Z,50.14
2023-10-29T02:39:01.327Z,50.12
2023-10-29T02:41:28.986Z,50.11
2023-10-29T02:43:56.598Z,49.58
2023-10-29T02:46:24.182Z,49.52
2023-10-29T02:48:52.157Z,49.55
2023-10-29T02:51:19.779Z,49.52
2023-10-29T02:53:47.438Z,49.36
2023-10-29T02:56:15.044Z,49.43
2023-10-29T02:58:42.607Z,49.79
2023-10-29T03:01:10.710Z,49.72
2023-10-29T03:03:39.136Z,49.52
2023-10-29T03:06:09.227Z,49.27
2023-10-29T03:08:37.737Z,49.47
2023-10-29T03:11:05.377Z,49.46
2023-10-29T03:13:32.992Z,49.40
2023-10-29T03:16:00.748Z,49.48
2023-10-29T03:18:30.556Z,49.50
2023-10-29T03:20:58.391Z,49.30
2023-10-29T03:23:27.146Z,49.44
2023-10-29T03:26:01.947Z,49.27
2023-10-29T03:28:30.761Z,49.14
2023-10-29T03:30:58.371Z,48.99
2023-10-29T03:33:25.998Z,49.07
2023-10-29T03:35:53.682Z,49.48
2023-10-29T03:38:22.280Z,49.06
2023-10-29T03:40:49.868Z,49.23
2023-10-29T03:43:17.828Z,48.96
2023-10-29T03:45:45.636Z,48.85
2023-10-29T03:48:16.528Z,48.88
2023-10-29T03:50:44.307Z,48.69
2023-10-29T03:53:11.989Z,48.38
2023-10-29T03:55:39.613Z,48.40
2023-10-29T03:58:07.213Z,48.28
2023-10-29T04:00:34.885Z,48.20
2023-10-29T04:03:02.767Z,48.24
2023-10-29T04:05:30.557Z,48.22
2023-10-29T04:07:58.140Z,48.03
2023-10-29T04:10:25.733Z,48.08
2023-10-29T04:12:53.301Z,47.98
2023-10-29T04:15:20.917Z,47.93
2023-10-29T04:17:49.606Z,48.01
2023-10-29T04:20:17.813Z,47.82
2023-10-29T04:22:45.800Z,47.65
2023-10-29T04:25:13.368Z,47.72
2023-10-29T04:27:41.002Z,47.30
2023-10-29T04:30:09.237Z,47.40
2023-10-29T04:32:36.913Z,47.38
2023-10-29T04:35:05.156Z,47.11
2023-10-29T04:37:32.739Z,47.13
2023-10-29T04:40:00.307Z,47.22
2023-10-29T04:42:27.898Z,47.11
2023-10-29T04:44:55.583Z,47.06
2023-10-29T04:47:23.177Z,46.91
2023-10-29T04:49:50.890Z,46.83
2023-10-29T04:52:18.505Z,46.51
2023-10-29T04:54:46.264Z,46.56
2023-10-29T04:57:14.314Z,46.59
2023-10-29T04:59:42.025Z,46.49
2023-10-29T05:02:09.836Z,46.55
2023-10-29T05:04:37.404Z,46.56
2023-10-29T05:07:05.066Z,46.55
2023-10-29T05:09:32.734Z,46.51
2023-10-29T05:12:00.318Z,46.40
2023-10-29T05:14:28.201Z,46.34
2023-10-29T05:16:55.936Z,46.31
2023-10-29T05:19:23.685Z,46.21
2023-10-29T05:21:51.733Z,46.28
2023-10-29T05:24:19.333Z,46.29
2023-10-29T05:26:46.959Z,46.03
2023-10-29T05:29:14.580Z,46.09
2023-10-29T05:31:42.210Z,46.06
2023-10-29T05:34:09.886Z,46.12
2023-10-29T05:36:37.491Z,46.09
2023-10-29T05:39:08.076Z,45.98
2023-10-29T05:41:35.675Z,46.07
2023-10-29T05:44:03.333Z,46.06
2023-10-29T05:46:30.985Z,46.28
2023-10-29T05:48:58.560Z,46.41
2023-10-29T05:51:26.212Z,46.26
2023-10-29T05:53:53.855Z,46.08
2023-10-29T05:56:21.547Z,46.03
2023-10-29T05:58:49.784Z,46.00
2023-10-29T06:01:17.420Z,45.83
2023-10-29T06:03:45.285Z,45.92
2023-10-29T06:06:12.947Z,45.94
2023-10-29T06:08:40.742Z,45.87
2023-10-29T06:11:08.340Z,45.89
2023-10-29T06:13:35.907Z,45.78
2023-10-29T06:16:09.220Z,45.79
2023-10-29T06:18:36.984Z,45.98
2023-10-29T06:21:04.988Z,46.00
2023-10-29T06:23:32.866Z,46.13
2023-10-29T06:26:00.531Z,45.85
2023-10-29T06:28:28.139Z,45.71
2023-10-29T06:30:55.798Z,46.11
2023-10-29T06:33:23.496Z,46.01
2023-10-29T06:35:51.141Z,46.22
2023-10-29T06:38:18.758Z,46.03
2023-10-29T06:40:46.404Z,45.99
2023-10-29T06:43:13.985Z,45.99
2023-10-29T06:45:41.719Z,46.05
2023-10-29T06:48:09.394Z,46.00
2023-10-29T06:50:37.812Z,46.21
2023-10-29T06:53:06.923Z,46.15
2023-10-29T06:55:36.640Z,46.33
2023-10-29T06:58:05.153Z,46.46
2023-10-29T07:00:33.090Z,46.24
2023-10-29T07:03:01.226Z,46.30
2023-10-29T07:05:29.162Z,46.23
2023-10-29T07:07:56.741Z,46.20
2023-10-29T07:10:24.425Z,46.17
2023-10-29T07:12:54.176Z,46.10
2023-10-29T07:15:21.795Z,46.09
2023-10-29T07:17:49.451Z,46.29
2023-10-29T07:20:17.142Z,46.40
2023-10-29T07:22:44.759Z,46.30
2023-10-29T07:25:12.705Z,46.18
2023-10-29T07:27:40.339Z,46.28
2023-10-29T07:30:08.887Z,46.32
2023-10-29T07:32:36.862Z,46.56
2023-10-29T07:35:05.064Z,46.24
2023-10-29T07:37:33.092Z,46.67
2023-10-29T07:40:00.696Z,46.67
2023-10-29T07:42:28.318Z,46.83
2023-10-29T07:44:56.074Z,46.61
2023-10-29T07:47:23.651Z,46.90
2023-10-29T07:49:51.314Z,46.68
2023-10-29T07:52:18.893Z,46.51
2023-10-29T07:54:46.769Z,46.98
2023-10-29T07:57:15.089Z,46.89
2023-10-29T07:59:42.735Z,47.03
2023-10-29T08:02:10.302Z,47.19
2023-10-29T08:04:37.966Z,47.07
2023-10-29T08:07:05.709Z,47.10
2023-10-29T08:09:33.770Z,47.26
2023-10-29T08:12:01.371Z,47.01
2023-10-29T08:14:29.737Z,47.23
2023-10-29T08:16:57.305Z,47.18
2023-10-29T08:19:27.594Z,47.33
2023-10-29T08:21:55.182Z,47.34
2023-10-29T08:24:22.751Z,47.56
2023-10-29T08:26:51.115Z,47.87
2023-10-29T08:29:18.801Z,48.04
2023-10-29T08:31:46.384Z,47.88
2023-10-29T08:34:13.995Z,48.39
2023-10-29T08:36:41.916Z,47.96
2023-10-29T08:39:10.250Z,48.18
2023-10-29T08:41:37.936Z,48.31
2023-10-29T08:44:05.968Z,49.13
2023-10-29T08:46:33.596Z,49.49
2023-10-29T08:49:01.202Z,49.53
2023-10-29T08:51:28.771Z,49.99
2023-10-29T08:53:58.462Z,50.08
2023-10-29T08:56:26.143Z,49.79
2023-10-29T08:58:53.722Z,49.71
2023-10-29T09:01:21.737Z,49.98
2023-10-29T09:03:49.458Z,49.78
2023-10-29T09:06:17.404Z,49.71
2023-10-29T09:08:45.043Z,49.33
2023-10-29T09:11:16.084Z,49.40
2023-10-29T09:13:44.108Z,49.14
2023-10-29T09:16:12.248Z,49.29
2023-10-29T09:18:40.845Z,49.16
2023-10-29T09:21:08.563Z,49.16
2023-10-29T09:23:36.272Z,48.89
2023-10-29T09:26:04.167Z,49.33
2023-10-29T09:28:31.716Z,49.00
2023-10-29T09:30:59.261Z,48.91
2023-10-29T09:33:27.194Z,49.11
2023-10-29T09:35:54.892Z,48.90
2023-10-29T09:38:22.481Z,49.00
2023-10-29T09:40:56.703Z,49.60
2023-10-29T09:43:32.470Z,49.69
2023-10-29T09:46:05.857Z,49.96
2023-10-29T09:48:35.560Z,50.34
2023-10-29T09:51:05.924Z,49.95
2023-10-29T09:53:37.143Z,50.19
2023-10-29T09:56:09.916Z,50.45
2023-10-29T09:58:38.024Z,50.60
2023-10-29T10:01:06.385Z,50.81
2023-10-29T10:03:34.251Z,50.93
2023-10-29T10:06:02.659Z,51.17
2023-10-29T10:08:31.844Z,51.27
2023-10-29T10:11:00.336Z,51.66
2023-10-29T10:13:39.418Z,51.55
2023-10-29T10:16:16.045Z,51.84
2023-10-29T10:18:51.493Z,51.97
2023-10-29T10:21:24.454Z,51.81
2023-10-29T10:23:57.332Z,52.15
2023-10-29T10:26:35.145Z,52.40
2023-10-29T10:29:06.348Z,52.26
2023-10-29T10:31:36.582Z,52.35
2023-10-29T10:34:19.077Z,52.28
2023-10-29T10:36:51.759Z,52.25
2023-10-29T10:39:26.866Z,52.45
2023-10-29T10:41:54.792Z,52.56
2023-10-29T10:44:23.357Z,52.28
2023-10-29T10:46:59.119Z,52.14
2023-10-29T10:49:31.675Z,52.14
2023-10-29T10:52:02.384Z,52.33
2023-10-29T10:54:30.843Z,52.08
2023-10-29T10:57:01.972Z,52.55
2023-10-29T10:59:30.944Z,52.14
2023-10-29T11:01:59.022Z,52.17
2023-10-29T11:04:28.381Z,52.34
2023-10-29T11:06:56.978Z,52.10
2023-10-29T11:09:24.955Z,51.92
2023-10-29T11:11:57.842Z,51.63
2023-10-29T11:14:26.763Z,51.77
2023-10-29T11:16:59.859Z,51.66
2023-10-29T11:19:48.040Z,51.60
2023-10-29T11:22:32.309Z,51.71
2023-10-29T11:25:29.357Z,51.93
2023-10-29T11:27:56.995Z,51.66
2023-10-29T11:30:28.702Z,51.80
2023-10-29T11:33:11.334Z,51.77
2023-10-29T11:35:40.670Z,51.56
2023-10-29T11:38:34.332Z,51.67
2023-10-29T11:41:39.885Z,51.58
2023-10-29T11:44:23.152Z,51.78
2023-10-29T11:46:57.087Z,51.39
2023-10-29T11:49:28.191Z,50.53
2023-10-29T11:52:05.410Z,50.33
2023-10-29T11:54:35.277Z,50.04
2023-10-29T11:57:05.800Z,49.55
2023-10-29T11:59:33.790Z,49.28
2023-10-29T12:02:01.590Z,49.03
2023-10-29T12:04:33.333Z,48.91
2023-10-29T12:07:01.141Z,48.51
2023-10-29T12:09:28.919Z,48.09
2023-10-29T12:11:57.305Z,47.71
2023-10-29T12:14:47.024Z,47.84
2023-10-29T12:17:15.709Z,47.48
2023-10-29T12:19:46.273Z,47.07
2023-10-29T12:22:21.389Z,46.77
2023-10-29T12:25:02.299Z,45.89
2023-10-29T12:27:31.364Z,45.24
2023-10-29T12:29:59.288Z,45.45
2023-10-29T12:32:28.102Z,45.22
2023-10-29T12:34:58.791Z,45.20
2023-10-29T12:37:28.296Z,45.23
2023-10-29T12:40:01.032Z,45.20
2023-10-29T12:42:54.029Z,45.38
2023-10-29T12:45:32.509Z,45.65
2023-10-29T12:48:10.095Z,45.60
2023-10-29T12:50:53.874Z,45.80
2023-10-29T12:53:25.697Z,46.30
2023-10-29T12:55:54.505Z,46.05
2023-10-29T12:58:22.532Z,46.17
2023-10-29T13:00:55.306Z,46.41
2023-10-29T13:03:26.048Z,46.34
2023-10-29T13:05:55.629Z,46.27
2023-10-29T13:08:27.433Z,45.99
2023-10-29T13:10:55.104Z,45.04
2023-10-29T13:13:26.321Z,45.09
2023-10-29T13:15:54.035Z,45.04
2023-10-29T13:18:21.702Z,44.87
2023-10-29T13:20:50.238Z,45.02
2023-10-29T13:23:17.905Z,44.70
2023-10-29T13:25:45.479Z,45.05
2023-10-29T13:28:13.046Z,44.83
2023-10-29T13:30:40.594Z,44.58
2023-10-29T13:33:09.354Z,44.67
2023-10-29T13:35:40.276Z,43.71
2023-10-29T13:38:09.461Z,43.71
2023-10-29T13:40:40.255Z,43.88
2023-10-29T13:43:08.152Z,44.12
2023-10-29T13:45:36.003Z,43.78
2023-10-29T13:48:05.716Z,43.58
2023-10-29T13:50:38.834Z,43.14
2023-10-29T13:53:07.015Z,43.49
2023-10-29T13:55:34.609Z,43.73
2023-10-29T13:58:03.549Z,43.60
2023-10-29T14:00:32.174Z,43.94
2023-10-29T14:02:59.938Z,44.07
2023-10-29T14:05:28.459Z,43.95
2023-10-29T14:07:58.738Z,43.70
2023-10-29T14:10:26.397Z,43.57
2023-10-29T14:12:54.028Z,43.66
2023-10-29T14:15:21.641Z,43.47
2023-10-29T14:17:49.470Z,43.55
2023-10-29T14:20:17.120Z,43.33
2023-10-29T14:22:44.793Z,43.41
2023-10-29T14:25:14.589Z,43.07
2023-10-29T14:27:42.177Z,43.06
2023-10-29T14:30:10.508Z,42.66
2023-10-29T14:32:38.393Z,42.79
2023-10-29T14:35:07.097Z,42.68
2023-10-29T14:37:34.681Z,42.31
2023-10-29T14:40:03.566Z,42.14
2023-10-29T14:42:31.381Z,42.49
2023-10-29T14:44:59.141Z,42.44
2023-10-29T14:47:26.867Z,42.20
2023-10-29T14:49:54.444Z,42.32
2023-10-29T14:52:21.998Z,42.68
2023-10-29T14:54:49.757Z,42.79
2023-10-29T14:57:29.129Z,42.79
2023-10-29T14:59:57.705Z,42.79
2023-10-29T15:02:25.617Z,43.04
2023-10-29T15:04:56.586Z,43.00
2023-10-29T15:07:24.414Z,43.01
2023-10-29T15:09:52.448Z,43.22
2023-10-29T15:12:20.658Z,43.04
2023-10-29T15:14:48.489Z,43.02
2023-10-29T15:17:20.927Z,43.18
2023-10-29T15:19:54.938Z,43.21
2023-10-29T15:22:22.643Z,42.93
2023-10-29T15:24:50.725Z,43.00
2023-10-29T15:27:18.490Z,42.87
2023-10-29T15:29:47.808Z,42.60
2023-10-29T15:32:15.379Z,42.64
2023-10-29T15:34:42.976Z,42.58
2023-10-29T15:37:10.565Z,42.41
2023-10-29T15:39:38.791Z,42.60
2023-10-29T15:42:06.931Z,42.51
2023-10-29T15:44:34.590Z,42.82
2023-10-29T15:47:02.205Z,42.64
2023-10-29T15:49:29.929Z,42.86
2023-10-29T15:51:58.602Z,42.32
2023-10-29T15:54:28.631Z,42.69
2023-10-29T15:56:56.254Z,42.75
2023-10-29T15:59:24.638Z,42.19
2023-10-29T16:01:53.374Z,42.24
2023-10-29T16:04:21.141Z,42.44
2023-10-29T16:06:48.787Z,42.47
2023-10-29T16:09:16.799Z,42.46
2023-10-29T16:11:48.259Z,42.21
2023-10-29T16:14:16.298Z,42.09
2023-10-29T16:16:44.752Z,41.75
2023-10-29T16:19:12.414Z,41.87
2023-10-29T16:21:40.015Z,42.03
2023-10-29T16:24:08.071Z,42.12
2023-10-29T16:26:36.551Z,42.32
2023-10-29T16:29:04.137Z,42.51
2023-10-29T16:31:31.742Z,42.44
2023-10-29T16:33:59.665Z,42.61
2023-10-29T16:36:27.431Z,42.47
2023-10-29T16:38:56.115Z,42.22
2023-10-29T16:41:23.745Z,41.82
2023-10-29T16:43:54.426Z,41.77
2023-10-29T16:46:22.392Z,43.49
2023-10-29T16:48:50.178Z,48.72
2023-10-29T16:51:17.824Z,55.26
2023-10-29T16:53:45.403Z,56.19
2023-10-29T16:56:13.583Z,58.93
2023-10-29T16:58:43.002Z,63.65
2023-10-29T17:01:14.053Z,66.15
2023-10-29T17:03:42.109Z,64.96
2023-10-29T17:06:10.111Z,66.41
2023-10-29T17:08:37.801Z,65.98
2023-10-29T17:11:05.360Z,66.18
2023-10-29T17:13:33.131Z,68.23
2023-10-29T17:16:05.409Z,68.27
2023-10-29T17:18:33.830Z,68.80
2023-10-29T17:21:02.631Z,68.93
2023-10-29T17:23:30.439Z,68.73
2023-10-29T17:25:58.228Z,67.04
2023-10-29T17:28:25.950Z,67.71
2023-10-29T17:30:53.606Z,68.96
2023-10-29T17:33:21.911Z,68.49
2023-10-29T17:35:49.522Z,68.74
2023-10-29T17:38:17.086Z,68.88
2023-10-29T17:40:44.662Z,68.46
2023-10-29T17:43:14.811Z,68.81
2023-10-29T17:45:44.416Z,69.40
2023-10-29T17:48:14.010Z,68.78
2023-10-29T17:50:42.937Z,68.95
2023-10-29T17:53:11.117Z,68.22
2023-10-29T17:55:38.777Z,68.03
2023-10-29T17:58:06.478Z,68.30
2023-10-29T18:00:34.477Z,68.47
2023-10-29T18:03:02.396Z,69.48
2023-10-29T18:05:30.095Z,69.45
2023-10-29T18:07:57.652Z,68.69
2023-10-29T18:10:26.882Z,68.37
2023-10-29T18:12:54.455Z,68.28
2023-10-29T18:15:22.090Z,67.94
2023-10-29T18:17:49.700Z,67.87
2023-10-29T18:20:17.405Z,67.53
2023-10-29T18:22:45.061Z,67.63
2023-10-29T18:25:12.910Z,68.05
2023-10-29T18:27:41.263Z,67.68
2023-10-29T18:30:11.456Z,67.49
2023-10-29T18:32:39.130Z,67.71
2023-10-29T18:35:07.127Z,67.35
2023-10-29T18:37:34.927Z,67.12
2023-10-29T18:40:02.581Z,67.04
2023-10-29T18:42:30.157Z,66.97
2023-10-29T18:44:58.159Z,67.05
2023-10-29T18:47:25.777Z,66.89
2023-10-29T18:49:53.444Z,67.30
2023-10-29T18:52:21.065Z,68.09
2023-10-29T18:54:48.695Z,67.92
2023-10-29T18:57:16.669Z,67.71
2023-10-29T18:59:44.403Z,68.05
2023-10-29T19:02:12.147Z,68.45
2023-10-29T19:04:39.899Z,68.35
2023-10-29T19:07:07.561Z,68.93
2023-10-29T19:09:35.296Z,68.84
2023-10-29T19:12:05.188Z,69.10
2023-10-29T19:14:34.337Z,68.89
2023-10-29T19:17:03.721Z,68.66
2023-10-29T19:19:31.292Z,68.69
2023-10-29T19:21:58.892Z,68.58
2023-10-29T19:24:26.512Z,68.52
2023-10-29T19:26:54.141Z,68.36
2023-10-29T19:29:21.754Z,68.30
2023-10-29T19:31:49.349Z,68.14
2023-10-29T19:34:17.351Z,68.18
2023-10-29T19:36:44.945Z,68.27
2023-10-29T19:39:14.284Z,68.22
2023-10-29T19:41:41.918Z,68.46
2023-10-29T19:44:09.554Z,68.49
2023-10-29T19:46:37.646Z,68.21
2023-10-29T19:49:05.291Z,68.28
2023-10-29T19:51:32.889Z,68.14
2023-10-29T19:54:01.527Z,68.11
2023-10-29T19:56:29.691Z,68.08
2023-10-29T19:58:57.517Z,68.00
2023-10-29T20:01:25.175Z,67.83
2023-10-29T20:03:52.898Z,67.91
2023-10-29T20:06:20.810Z,67.66
2023-10-29T20:08:49.390Z,67.64
2023-10-29T20:11:16.991Z,67.69
2023-10-29T20:13:48.565Z,67.81
2023-10-29T20:16:16.234Z,67.73
2023-10-29T20:18:44.250Z,67.69
2023-10-29T20:21:18.072Z,67.82
2023-10-29T20:23:48.156Z,67.72
2023-10-29T20:26:20.740Z,67.71
2023-10-29T20:28:53.056Z,67.55
2023-10-29T20:31:21.636Z,67.74
2023-10-29T20:33:51.094Z,67.57
2023-10-29T20:36:19.113Z,67.47
2023-10-29T20:38:46.762Z,67.54
2023-10-29T20:41:14.370Z,67.51
2023-10-29T20:43:42.136Z,67.34
2023-10-29T20:46:10.646Z,67.46
2023-10-29T20:48:38.963Z,67.34
2023-10-29T20:51:07.889Z,67.29
2023-10-29T20:53:35.599Z,67.32
2023-10-29T20:56:05.672Z,67.31
2023-10-29T20:58:33.528Z,67.51
2023-10-29T21:01:04.560Z,67.46
2023-10-29T21:03:32.358Z,67.38
2023-10-29T21:06:00.817Z,67.50
2023-10-29T21:08:28.723Z,67.56
2023-10-29T21:11:09.558Z,67.54
2023-10-29T21:13:37.457Z,67.53
2023-10-29T21:16:07.209Z,67.57
2023-10-29T21:18:36.680Z,67.77
2023-10-29T21:21:05.063Z,67.57
2023-10-29T21:23:32.807Z,67.80
2023-10-29T21:26:00.465Z,67.68
2023-10-29T21:28:28.302Z,67.70
2023-10-29T21:30:56.081Z,67.68
2023-10-29T21:33:23.918Z,68.01
2023-10-29T21:35:51.915Z,67.90
2023-10-29T21:38:20.142Z,68.11
2023-10-29T21:40:47.730Z,67.86
2023-10-29T21:43:15.746Z,67.86
2023-10-29T21:45:43.369Z,67.66
2023-10-29T21:48:11.485Z,67.73
2023-10-29T21:50:41.891Z,67.58
2023-10-29T21:53:10.352Z,67.55
2023-10-29T21:55:38.522Z,67.71
2023-10-29T21:58:09.968Z,67.65
2023-10-29T22:00:37.912Z,67.83
2023-10-29T22:03:06.037Z,67.86
2023-10-29T22:05:34.183Z,67.82
2023-10-29T22:08:02.620Z,67.83
2023-10-29T22:10:30.972Z,67.94
2023-10-29T22:12:58.685Z,67.96
2023-10-29T22:15:28.943Z,68.08
2023-10-29T22:17:56.970Z,68.04
2023-10-29T22:20:25.276Z,67.89
2023-10-29T22:22:52.881Z,67.94
2023-10-29T22:25:20.619Z,68.03
2023-10-29T22:27:48.216Z,67.91
2023-10-29T22:30:15.879Z,67.97
2023-10-29T22:32:43.512Z,68.03
2023-10-29T22:35:11.497Z,67.98
2023-10-29T22:37:39.211Z,67.87
2023-10-29T22:40:07.615Z,68.14
2023-10-29T22:42:35.221Z,68.03
2023-10-29T22:45:02.863Z,68.20
2023-10-29T22:47:30.809Z,68.27
2023-10-29T22:49:58.472Z,68.19
2023-10-29T22:52:26.053Z,68.29
2023-10-29T22:54:53.742Z,68.13
2023-10-29T22:57:21.334Z,68.14
2023-10-29T22:59:51.974Z,68.33
2023-10-29T23:02:19.990Z,68.16
2023-10-29T23:04:47.606Z,68.14
2023-10-29T23:07:15.162Z,68.14
2023-10-29T23:09:42.934Z,68.32
2023-10-29T23:12:10.588Z,68.27
2023-10-29T23:14:38.402Z,68.29
2023-10-29T23:17:06.085Z,68.48
2023-10-29T23:19:35.110Z,68.56
2023-10-29T23:22:02.812Z,68.47
2023-10-29T23:24:30.514Z,68.67
2023-10-29T23:26:58.109Z,68.70
2023-10-29T23:29:25.658Z,68.73
2023-10-29T23:31:53.372Z,68.64
2023-10-29T23:34:22.628Z,68.76
2023-10-29T23:36:50.306Z,68.76
2023-10-29T23:39:17.888Z,68.79
2023-10-29T23:41:45.457Z,68.75
2023-10-29T23:44:13.052Z,68.66
2023-10-29T23:46:40.664Z,68.57
2023-10-29T23:49:09.352Z,68.67
2023-10-29T23:51:37.065Z,68.45
2023-10-29T23:54:05.393Z,68.62
2023-10-29T23:56:33.469Z,68.66
2023-10-29T23:59:01.083Z,68.63
